Silifke, Turkey
Current Conditions -  °F | °C
As of 2:50 PM on Thursday 30 Oct 2014 (Local Time) from LTAF Reporting Station
Broken Clouds Broken Clouds  
Wind Chill: 72°   Ceiling: 10000
Heat Index: 72°   Visibility: 6mi
Dew Point: 57°   Wind: 6mph
Humidity: 60%   Direction: 220°SW
Pressure: 29.88"   Gusts: NA
Location:  36.37°N, 33.93°E
Report Text: LTAF 301250Z 22005KT 9999 SCT035TCU BKN100 22/14 Q1012 TEMPO -TSRA
Loading
Personal Weather Stations






























Interactive Weather Map
Tropical Storm Tracking
New forecast layout! Learn more

10-Day Weather Forecast

Advertisements
Track Severe Weather on mobile